Map

Track Data

SID SEASON NUMBER BASIN SUBBASIN NAME ISO_TIME NATURE LAT LON WMO_WIND WMO_PRES WMO_AGENCY TRACK_TYPE DIST2LAND LANDFALL IFLAG USA_AGENCY USA_ATCF_ID USA_LAT USA_LON USA_RECORD USA_STATUS USA_WIND USA_PRES USA_SSHS USA_R34_NE USA_R34_SE USA_R34_SW USA_R34_NW USA_R50_NE USA_R50_SE USA_R50_SW USA_R50_NW USA_R64_NE USA_R64_SE USA_R64_SW USA_R64_NW USA_POCI USA_ROCI USA_RMW USA_EYE TOKYO_LAT TOKYO_LON TOKYO_GRADE TOKYO_WIND TOKYO_PRES TOKYO_R50_DIR TOKYO_R50_LONG TOKYO_R50_SHORT TOKYO_R30_DIR TOKYO_R30_LONG TOKYO_R30_SHORT TOKYO_LAND CMA_LAT CMA_LON CMA_CAT CMA_WIND CMA_PRES HKO_LAT HKO_LON HKO_CAT HKO_WIND HKO_PRES NEWDELHI_LAT NEWDELHI_LON NEWDELHI_GRADE NEWDELHI_WIND NEWDELHI_PRES NEWDELHI_CI NEWDELHI_DP NEWDELHI_POCI REUNION_LAT REUNION_LON REUNION_TYPE REUNION_WIND REUNION_PRES REUNION_TNUM REUNION_CI REUNION_RMW REUNION_R34_NE REUNION_R34_SE REUNION_R34_SW REUNION_R34_NW REUNION_R50_NE REUNION_R50_SE REUNION_R50_SW REUNION_R50_NW REUNION_R64_NE REUNION_R64_SE REUNION_R64_SW REUNION_R64_NW BOM_LAT BOM_LON BOM_TYPE BOM_WIND BOM_PRES BOM_TNUM BOM_CI BOM_RMW BOM_R34_NE BOM_R34_SE BOM_R34_SW BOM_R34_NW BOM_R50_NE BOM_R50_SE BOM_R50_SW BOM_R50_NW BOM_R64_NE BOM_R64_SE BOM_R64_SW BOM_R64_NW BOM_ROCI BOM_POCI BOM_EYE BOM_POS_METHOD BOM_PRES_METHOD NADI_LAT NADI_LON NADI_CAT NADI_WIND NADI_PRES WELLINGTON_LAT WELLINGTON_LON WELLINGTON_WIND WELLINGTON_PRES DS824_LAT DS824_LON DS824_STAGE DS824_WIND DS824_PRES TD9636_LAT TD9636_LON TD9636_STAGE TD9636_WIND TD9636_PRES TD9635_LAT TD9635_LON TD9635_WIND TD9635_PRES TD9635_ROCI NEUMANN_LAT NEUMANN_LON NEUMANN_CLASS NEUMANN_WIND NEUMANN_PRES MLC_LAT MLC_LON MLC_CLASS MLC_WIND MLC_PRES USA_GUST BOM_GUST BOM_GUST_PER REUNION_GUST REUNION_GUST_PER USA_SEAHGT USA_SEARAD_NE USA_SEARAD_SE USA_SEARAD_SW USA_SEARAD_NW STORM_SPEED STORM_DIR
1881213N23275 1881 24 NA GM NOT_NAMED 1881-08-01 00:00:00 TS 23.0000 -85.5000 40 hurdat_atl main 133 133 O_____________ hurdat_atl AL011881 23.0000 -85.5000 TS 40 0 6 329
1881213N23275 1881 24 NA GM NOT_NAMED 1881-08-01 03:00:00 TS 23.2526 -85.6623 main 172 172 P_____________ AL011881 23.2526 -85.6623 TS 40 0 6 331
1881213N23275 1881 24 NA GM NOT_NAMED 1881-08-01 06:00:00 TS 23.5000 -85.8000 40 hurdat_atl main 196 196 O_____________ hurdat_atl AL011881 23.5000 -85.8000 TS 40 0 5 336
1881213N23275 1881 24 NA GM NOT_NAMED 1881-08-01 09:00:00 TS 23.7425 -85.9001 main 218 218 P_____________ AL011881 23.7425 -85.9001 TS 40 0 5 340
1881213N23275 1881 24 NA GM NOT_NAMED 1881-08-01 12:00:00 TS 24.0000 -86.0000 40 hurdat_atl main 248 248 O_____________ hurdat_atl AL011881 24.0000 -86.0000 TS 40 0 6 338
1881213N23275 1881 24 NA GM NOT_NAMED 1881-08-01 15:00:00 TS 24.2925 -86.1425 main 278 278 P_____________ AL011881 24.2925 -86.1425 TS 40 0 7 335
1881213N23275 1881 24 NA GM NOT_NAMED 1881-08-01 18:00:00 TS 24.6000 -86.3000 40 hurdat_atl main 316 316 O_____________ hurdat_atl AL011881 24.6000 -86.3000 TS 40 0 7 334
1881213N23275 1881 24 NA GM NOT_NAMED 1881-08-01 21:00:00 TS 24.8775 -86.4576 main 353 353 P_____________ AL011881 24.8775 -86.4576 TS 40 0 7 336
1881213N23275 1881 24 NA GM NOT_NAMED 1881-08-02 00:00:00 TS 25.2000 -86.6000 40 hurdat_atl main 384 384 O_____________ hurdat_atl AL011881 25.2000 -86.6000 TS 40 0 8 343
1881213N23275 1881 24 NA GM NOT_NAMED 1881-08-02 03:00:00 TS 25.6275 -86.7076 main 424 395 P_____________ AL011881 25.6275 -86.7076 TS 40 0 9 349
1881213N23275 1881 24 NA GM NOT_NAMED 1881-08-02 06:00:00 TS 26.1000 -86.8000 40 hurdat_atl main 395 353 O_____________ hurdat_atl AL011881 26.1000 -86.8000 TS 40 0 10 351
1881213N23275 1881 24 NA GM NOT_NAMED 1881-08-02 09:00:00 TS 26.5649 -86.8852 main 344 303 P_____________ AL011881 26.5649 -86.8852 TS 40 0 9 349
1881213N23275 1881 24 NA GM NOT_NAMED 1881-08-02 12:00:00 TS 27.0000 -87.0000 40 hurdat_atl main 303 265 O_____________ hurdat_atl AL011881 27.0000 -87.0000 TS 40 0 8 341
1881213N23275 1881 24 NA GM NOT_NAMED 1881-08-02 15:00:00 TS 27.3575 -87.1851 main 257 220 P_____________ AL011881 27.3575 -87.1851 TS 40 0 8 333
1881213N23275 1881 24 NA GM NOT_NAMED 1881-08-02 18:00:00 TS 27.7000 -87.4000 40 hurdat_atl main 220 176 O_____________ hurdat_atl AL011881 27.7000 -87.4000 TS 40 0 8 333
1881213N23275 1881 24 NA GM NOT_NAMED 1881-08-02 21:00:00 TS 28.0925 -87.6075 main 176 134 P_____________ AL011881 28.0925 -87.6075 TS 45 0 9 336
1881213N23275 1881 24 NA GM NOT_NAMED 1881-08-03 00:00:00 TS 28.5000 -87.8000 50 hurdat_atl main 134 99 O_____________ hurdat_atl AL011881 28.5000 -87.8000 TS 50 0 9 339
1881213N23275 1881 24 NA GM NOT_NAMED 1881-08-03 03:00:00 TS 28.9000 -87.9651 main 99 87 P_____________ AL011881 28.9000 -87.9651 TS 50 0 8 342
1881213N23275 1881 24 NA GM NOT_NAMED 1881-08-03 06:00:00 TS 29.3000 -88.1000 50 hurdat_atl main 90 59 O_____________ hurdat_atl AL011881 29.3000 -88.1000 TS 50 0 9 344
1881213N23275 1881 24 NA GM NOT_NAMED 1881-08-03 09:00:00 TS 29.7270 -88.2329 main 59 29 P_____________ AL011881 29.7270 -88.2329 TS 50 0 8 348
1881213N23275 1881 24 NA GM NOT_NAMED 1881-08-03 12:00:00 TS 30.1000 -88.3000 50 hurdat_atl main 29 22 O_____________ hurdat_atl AL011881 30.1000 -88.3000 TS 50 0 7 353
1881213N23275 1881 24 NA GM NOT_NAMED 1881-08-03 13:00:00 TS 30.2000 -88.3000 50 hurdat_atl main 22 0 O_____________ hurdat_atl AL011881 30.2000 -88.3000 L TS 50 0 7 0
1881213N23275 1881 24 NA NA NOT_NAMED 1881-08-03 15:00:00 TS 30.4605 -88.3229 main 0 0 P_____________ AL011881 30.4605 -88.3229 TS 45 0 8 353
1881213N23275 1881 24 NA NA NOT_NAMED 1881-08-03 18:00:00 TS 30.9000 -88.4000 40 hurdat_atl main 0 0 O_____________ hurdat_atl AL011881 30.9000 -88.4000 TS 40 0 8 349
1881213N23275 1881 24 NA NA NOT_NAMED 1881-08-03 21:00:00 TS 31.2271 -88.4934 main 0 0 P_____________ AL011881 31.2271 -88.4934 TS 35 0 6 344
1881213N23275 1881 24 NA NA NOT_NAMED 1881-08-04 00:00:00 TS 31.5000 -88.6000 30 hurdat_atl main 0 0 O_____________ hurdat_atl AL011881 31.5000 -88.6000 TD 30 -1 6 341
1881213N23275 1881 24 NA NA NOT_NAMED 1881-08-04 03:00:00 TS 31.7535 -88.7021 main 0 0 P_____________ AL011881 31.7535 -88.7021 TD 30 -1 5 341
1881213N23275 1881 24 NA NA NOT_NAMED 1881-08-04 06:00:00 TS 32.0000 -88.8000 30 hurdat_atl main 0 O_____________ hurdat_atl AL011881 32.0000 -88.8000 TD 30 -1 5 342

About IBTrACS Database

This database is a web-friendly format of International Best Track Archive for Climate Stewardship (IBTrACS), a global best track data archive curated by NOAA dating back to 1842.

Updated: 2021-10-08